sensor_id;sensor_type;location;lat;lon;timestamp;pressure;altitude;pressure_sealevel;temperature;humidity
60087;BME280;45960;53.630;55.972;2023-03-29T00:00:19;99864.91;;;5.57;59.29
60087;BME280;45960;53.630;55.972;2023-03-29T00:01:20;99863.16;;;5.56;59.12
60087;BME280;45960;53.630;55.972;2023-03-29T00:02:22;99864.13;;;5.55;59.13
60087;BME280;45960;53.630;55.972;2023-03-29T00:03:29;99870.34;;;5.54;59.30
60087;BME280;45960;53.630;55.972;2023-03-29T00:04:30;99875.63;;;5.54;59.37
60087;BME280;45960;53.630;55.972;2023-03-29T00:05:31;99866.94;;;5.52;59.29
60087;BME280;45960;53.630;55.972;2023-03-29T00:06:35;99872.22;;;5.52;59.45
60087;BME280;45960;53.630;55.972;2023-03-29T00:07:37;99873.16;;;5.51;59.47
60087;BME280;45960;53.630;55.972;2023-03-29T00:08:38;99873.25;;;5.50;59.49
60087;BME280;45960;53.630;55.972;2023-03-29T00:09:39;99870.66;;;5.48;59.47
60087;BME280;45960;53.630;55.972;2023-03-29T00:10:40;99878.53;;;5.50;59.45
60087;BME280;45960;53.630;55.972;2023-03-29T00:11:41;99871.50;;;5.49;59.48
60087;BME280;45960;53.630;55.972;2023-03-29T00:12:42;99888.28;;;5.49;59.18
60087;BME280;45960;53.630;55.972;2023-03-29T00:13:43;99889.19;;;5.48;59.07
60087;BME280;45960;53.630;55.972;2023-03-29T00:14:44;99887.41;;;5.49;59.30
60087;BME280;45960;53.630;55.972;2023-03-29T00:15:45;99897.16;;;5.48;59.23
60087;BME280;45960;53.630;55.972;2023-03-29T00:16:46;99892.78;;;5.47;59.20
60087;BME280;45960;53.630;55.972;2023-03-29T00:17:47;99890.16;;;5.47;59.18
60087;BME280;45960;53.630;55.972;2023-03-29T00:18:48;99887.50;;;5.47;59.20
60087;BME280;45960;53.630;55.972;2023-03-29T00:19:49;99888.44;;;5.46;59.33
60087;BME280;45960;53.630;55.972;2023-03-29T00:20:56;99892.00;;;5.45;59.37
60087;BME280;45960;53.630;55.972;2023-03-29T00:21:57;99883.28;;;5.43;59.37
60087;BME280;45960;53.630;55.972;2023-03-29T00:22:58;99881.56;;;5.42;59.47
60087;BME280;45960;53.630;55.972;2023-03-29T00:23:59;99887.72;;;5.43;59.36
60087;BME280;45960;53.630;55.972;2023-03-29T00:25:00;99890.47;;;5.41;59.30
60087;BME280;45960;53.630;55.972;2023-03-29T00:26:01;99892.16;;;5.42;59.35
60087;BME280;45960;53.630;55.972;2023-03-29T00:27:02;99890.47;;;5.41;59.42
60087;BME280;45960;53.630;55.972;2023-03-29T00:28:02;99893.09;;;5.41;59.14
60087;BME280;45960;53.630;55.972;2023-03-29T00:29:03;99885.16;;;5.41;59.12
60087;BME280;45960;53.630;55.972;2023-03-29T00:30:05;99890.47;;;5.41;59.04
60087;BME280;45960;53.630;55.972;2023-03-29T00:31:11;99892.31;;;5.39;59.24
60087;BME280;45960;53.630;55.972;2023-03-29T00:32:12;99887.03;;;5.39;59.25
60087;BME280;45960;53.630;55.972;2023-03-29T00:33:13;99894.19;;;5.37;59.06
60087;BME280;45960;53.630;55.972;2023-03-29T00:34:16;99895.03;;;5.37;59.02
60087;BME280;45960;53.630;55.972;2023-03-29T00:35:17;99893.31;;;5.36;59.24
60087;BME280;45960;53.630;55.972;2023-03-29T00:36:18;99890.69;;;5.36;59.33
60087;BME280;45960;53.630;55.972;2023-03-29T00:37:21;99894.34;;;5.34;59.46
60087;BME280;45960;53.630;55.972;2023-03-29T00:38:26;99886.38;;;5.34;59.68
60087;BME280;45960;53.630;55.972;2023-03-29T00:39:27;99887.34;;;5.33;59.57
60087;BME280;45960;53.630;55.972;2023-03-29T00:40:29;99884.69;;;5.33;59.84
60087;BME280;45960;53.630;55.972;2023-03-29T00:41:30;99891.78;;;5.32;59.89
60087;BME280;45960;53.630;55.972;2023-03-29T00:42:31;99887.34;;;5.33;59.75
60087;BME280;45960;53.630;55.972;2023-03-29T00:46:01;99886.38;;;5.34;59.77
60087;BME280;45960;53.630;55.972;2023-03-29T00:47:02;99894.34;;;5.34;59.82
60087;BME280;45960;53.630;55.972;2023-03-29T00:48:12;99894.34;;;5.34;60.07
60087;BME280;45960;53.630;55.972;2023-03-29T00:49:15;99888.25;;;5.32;60.14
60087;BME280;45960;53.630;55.972;2023-03-29T00:50:20;99890.91;;;5.32;60.07
60087;BME280;45960;53.630;55.972;2023-03-29T00:51:23;99886.53;;;5.31;60.19
60087;BME280;45960;53.630;55.972;2023-03-29T00:52:26;99892.78;;;5.30;60.28
60087;BME280;45960;53.630;55.972;2023-03-29T00:53:32;99893.69;;;5.29;60.25
60087;BME280;45960;53.630;55.972;2023-03-29T00:54:35;99884.91;;;5.28;60.38
60087;BME280;45960;53.630;55.972;2023-03-29T00:55:38;99889.34;;;5.28;60.52
60087;BME280;45960;53.630;55.972;2023-03-29T00:56:42;99885.75;;;5.29;60.54
60087;BME280;45960;53.630;55.972;2023-03-29T00:57:43;99897.22;;;5.29;60.50
60087;BME280;45960;53.630;55.972;2023-03-29T00:58:56;99887.50;;;5.30;60.52
60087;BME280;45960;53.630;55.972;2023-03-29T01:00:00;99895.34;;;5.31;60.47
60087;BME280;45960;53.630;55.972;2023-03-29T01:01:06;99894.50;;;5.31;60.53
60087;BME280;45960;53.630;55.972;2023-03-29T01:02:08;99899.78;;;5.31;60.63
60087;BME280;45960;53.630;55.972;2023-03-29T01:03:10;99896.34;;;5.29;60.61
60087;BME280;45960;53.630;55.972;2023-03-29T01:04:34;99901.66;;;5.29;60.47
60087;BME280;45960;53.630;55.972;2023-03-29T01:05:37;99902.44;;;5.31;60.74
60087;BME280;45960;53.630;55.972;2023-03-29T01:06:40;99891.94;;;5.29;60.69
60087;BME280;45960;53.630;55.972;2023-03-29T01:08:04;99889.34;;;5.28;60.74
60087;BME280;45960;53.630;55.972;2023-03-29T01:09:05;99898.25;;;5.27;60.83
60087;BME280;45960;53.630;55.972;2023-03-29T01:10:13;99898.25;;;5.27;61.05
60087;BME280;45960;53.630;55.972;2023-03-29T01:12:18;99900.09;;;5.25;61.13
60087;BME280;45960;53.630;55.972;2023-03-29T01:13:26;99907.25;;;5.23;61.10
60087;BME280;45960;53.630;55.972;2023-03-29T01:14:38;99905.56;;;5.22;61.32
60087;BME280;45960;53.630;55.972;2023-03-29T01:15:41;99904.69;;;5.21;61.29
60087;BME280;45960;53.630;55.972;2023-03-29T01:16:44;99914.41;;;5.21;61.25
60087;BME280;45960;53.630;55.972;2023-03-29T01:17:46;99914.41;;;5.21;61.19
60087;BME280;45960;53.630;55.972;2023-03-29T01:18:50;99918.00;;;5.20;61.51
60087;BME280;45960;53.630;55.972;2023-03-29T01:19:56;99915.34;;;5.20;61.30
60087;BME280;45960;53.630;55.972;2023-03-29T01:23:31;99916.28;;;5.19;61.61
60087;BME280;45960;53.630;55.972;2023-03-29T01:26:53;99918.94;;;5.19;61.76
60087;BME280;45960;53.630;55.972;2023-03-29T01:28:02;99911.91;;;5.18;61.87
60087;BME280;45960;53.630;55.972;2023-03-29T01:29:06;99911.91;;;5.18;61.79
60087;BME280;45960;53.630;55.972;2023-03-29T01:30:13;99912.84;;;5.16;61.95
60087;BME280;45960;53.630;55.972;2023-03-29T01:31:17;99918.16;;;5.16;61.94
60087;BME280;45960;53.630;55.972;2023-03-29T01:33:25;99916.44;;;5.15;62.22
60087;BME280;45960;53.630;55.972;2023-03-29T01:34:39;99921.75;;;5.15;62.13
60087;BME280;45960;53.630;55.972;2023-03-29T01:35:43;99921.75;;;5.15;62.31
60087;BME280;45960;53.630;55.972;2023-03-29T01:36:47;99927.81;;;5.18;62.38
60087;BME280;45960;53.630;55.972;2023-03-29T01:38:52;99932.34;;;5.15;62.43
60087;BME280;45960;53.630;55.972;2023-03-29T01:39:55;99932.34;;;5.15;62.16
60087;BME280;45960;53.630;55.972;2023-03-29T01:40:56;99932.34;;;5.15;62.10
60087;BME280;45960;53.630;55.972;2023-03-29T01:44:22;99937.75;;;5.12;62.06
60087;BME280;45960;53.630;55.972;2023-03-29T01:45:30;99940.41;;;5.12;62.26
60087;BME280;45960;53.630;55.972;2023-03-29T01:46:44;99939.66;;;5.10;62.14
60087;BME280;45960;53.630;55.972;2023-03-29T01:47:53;99932.59;;;5.09;61.96
60087;BME280;45960;53.630;55.972;2023-03-29T01:49:07;99931.75;;;5.09;61.95
60087;BME280;45960;53.630;55.972;2023-03-29T01:50:13;99936.25;;;5.07;61.88
60087;BME280;45960;53.630;55.972;2023-03-29T01:51:24;99932.75;;;5.06;61.98
60087;BME280;45960;53.630;55.972;2023-03-29T01:52:31;99935.50;;;5.05;62.02
60087;BME280;45960;53.630;55.972;2023-03-29T01:53:53;99930.22;;;5.05;62.09
60087;BME280;45960;53.630;55.972;2023-03-29T01:54:57;99938.22;;;5.03;62.02
60087;BME280;45960;53.630;55.972;2023-03-29T01:56:02;99939.16;;;5.02;62.23
60087;BME280;45960;53.630;55.972;2023-03-29T01:57:07;99931.22;;;5.02;62.10
60087;BME280;45960;53.630;55.972;2023-03-29T01:58:09;99935.56;;;5.03;62.02
60087;BME280;45960;53.630;55.972;2023-03-29T01:59:13;99937.34;;;5.03;62.24
60087;BME280;45960;53.630;55.972;2023-03-29T02:00:16;99939.94;;;5.04;62.33
60087;BME280;45960;53.630;55.972;2023-03-29T02:01:23;99932.06;;;5.03;62.20
60087;BME280;45960;53.630;55.972;2023-03-29T02:02:25;99938.22;;;5.03;62.42
60087;BME280;45960;53.630;55.972;2023-03-29T02:03:28;99938.22;;;5.03;62.31
60087;BME280;45960;53.630;55.972;2023-03-29T02:04:31;99943.44;;;5.05;62.24
60087;BME280;45960;53.630;55.972;2023-03-29T02:05:34;99939.94;;;5.04;62.39
60087;BME280;45960;53.630;55.972;2023-03-29T02:06:36;99945.25;;;5.04;62.32
60087;BME280;45960;53.630;55.972;2023-03-29T02:07:37;99946.16;;;5.03;62.33
60087;BME280;45960;53.630;55.972;2023-03-29T02:08:38;99950.53;;;5.04;62.47
60087;BME280;45960;53.630;55.972;2023-03-29T02:09:41;99956.59;;;5.06;62.53
60087;BME280;45960;53.630;55.972;2023-03-29T02:10:43;99955.69;;;5.07;62.66
60087;BME280;45960;53.630;55.972;2023-03-29T02:11:44;99950.38;;;5.07;62.52
60087;BME280;45960;53.630;55.972;2023-03-29T02:12:46;99960.88;;;5.09;62.59
60087;BME280;45960;53.630;55.972;2023-03-29T02:13:47;99955.53;;;5.10;62.35
60087;BME280;45960;53.630;55.972;2023-03-29T02:14:48;99954.69;;;5.10;62.69
60087;BME280;45960;53.630;55.972;2023-03-29T02:15:49;99958.94;;;5.12;62.25
60087;BME280;45960;53.630;55.972;2023-03-29T02:16:50;99962.38;;;5.14;62.36
60087;BME280;45960;53.630;55.972;2023-03-29T02:17:51;99963.22;;;5.15;62.45
60087;BME280;45960;53.630;55.972;2023-03-29T02:18:53;99965.97;;;5.13;62.24
60087;BME280;45960;53.630;55.972;2023-03-29T02:20:57;99965.81;;;5.16;62.38
60087;BME280;45960;53.630;55.972;2023-03-29T02:21:59;99973.69;;;5.18;62.56
60087;BME280;45960;53.630;55.972;2023-03-29T02:23:06;99967.53;;;5.18;62.46
60087;BME280;45960;53.630;55.972;2023-03-29T02:24:09;99966.63;;;5.19;62.31
60087;BME280;45960;53.630;55.972;2023-03-29T02:25:13;99976.25;;;5.20;62.09
60087;BME280;45960;53.630;55.972;2023-03-29T02:26:15;99970.03;;;5.21;62.48
60087;BME280;45960;53.630;55.972;2023-03-29T02:27:17;99977.97;;;5.21;62.34
60087;BME280;45960;53.630;55.972;2023-03-29T02:28:18;99967.38;;;5.21;62.35
60087;BME280;45960;53.630;55.972;2023-03-29T02:29:19;99968.25;;;5.21;62.27
60087;BME280;45960;53.630;55.972;2023-03-29T02:30:20;99965.53;;;5.23;62.17
60087;BME280;45960;53.630;55.972;2023-03-29T02:32:24;99970.81;;;5.23;62.34
60087;BME280;45960;53.630;55.972;2023-03-29T02:32:55;99973.47;;;5.23;62.14
60087;BME280;45960;53.630;55.972;2023-03-29T02:35:05;99977.69;;;5.27;62.00
60087;BME280;45960;53.630;55.972;2023-03-29T02:36:08;99977.69;;;5.27;62.14
60087;BME280;45960;53.630;55.972;2023-03-29T02:37:13;99979.41;;;5.28;62.00
60087;BME280;45960;53.630;55.972;2023-03-29T02:38:19;99981.13;;;5.29;61.96
60087;BME280;45960;53.630;55.972;2023-03-29T02:39:21;99975.81;;;5.29;61.85
60087;BME280;45960;53.630;55.972;2023-03-29T02:40:25;99984.66;;;5.29;62.05
60087;BME280;45960;53.630;55.972;2023-03-29T02:41:27;99972.25;;;5.30;62.06
60087;BME280;45960;53.630;55.972;2023-03-29T02:42:28;99974.81;;;5.31;62.09
60087;BME280;45960;53.630;55.972;2023-03-29T02:43:30;99976.59;;;5.31;62.26
60087;BME280;45960;53.630;55.972;2023-03-29T02:44:33;99978.25;;;5.33;61.77
60087;BME280;45960;53.630;55.972;2023-03-29T02:45:36;99973.81;;;5.34;62.05
60087;BME280;45960;53.630;55.972;2023-03-29T02:46:39;99968.50;;;5.34;61.86
60087;BME280;45960;53.630;55.972;2023-03-29T02:47:43;99978.25;;;5.33;62.09
60087;BME280;45960;53.630;55.972;2023-03-29T02:48:46;99971.09;;;5.35;62.09
60087;BME280;45960;53.630;55.972;2023-03-29T02:49:47;99980.84;;;5.35;62.17
60087;BME280;45960;53.630;55.972;2023-03-29T02:50:50;99980.84;;;5.35;62.21
60087;BME280;45960;53.630;55.972;2023-03-29T02:51:54;99969.31;;;5.36;62.17
60087;BME280;45960;53.630;55.972;2023-03-29T02:52:57;99975.44;;;5.36;62.23
60087;BME280;45960;53.630;55.972;2023-03-29T02:54:03;99972.81;;;5.36;62.20
60087;BME280;45960;53.630;55.972;2023-03-29T02:55:07;99968.34;;;5.37;62.10
60087;BME280;45960;53.630;55.972;2023-03-29T02:56:09;99971.78;;;5.39;62.28
60087;BME280;45960;53.630;55.972;2023-03-29T02:57:10;99965.56;;;5.40;62.17
60087;BME280;45960;53.630;55.972;2023-03-29T02:58:12;99974.38;;;5.41;62.17
60087;BME280;45960;53.630;55.972;2023-03-29T02:59:13;99969.94;;;5.41;62.25
60087;BME280;45960;53.630;55.972;2023-03-29T03:00:16;99976.94;;;5.42;62.31
60087;BME280;45960;53.630;55.972;2023-03-29T03:01:19;99977.78;;;5.43;61.95
60087;BME280;45960;53.630;55.972;2023-03-29T03:02:20;99975.09;;;5.44;62.42
60087;BME280;45960;53.630;55.972;2023-03-29T03:03:21;99980.28;;;5.46;62.41
60087;BME280;45960;53.630;55.972;2023-03-29T03:04:23;99983.81;;;5.46;62.59
60087;BME280;45960;53.630;55.972;2023-03-29T03:05:24;99990.84;;;5.47;62.52
60087;BME280;45960;53.630;55.972;2023-03-29T03:06:25;99997.84;;;5.48;62.40
60087;BME280;45960;53.630;55.972;2023-03-29T03:07:28;99988.97;;;5.49;62.65
60087;BME280;45960;53.630;55.972;2023-03-29T03:08:29;99979.22;;;5.50;62.55
60087;BME280;45960;53.630;55.972;2023-03-29T03:09:30;99991.53;;;5.51;62.41
60087;BME280;45960;53.630;55.972;2023-03-29T03:10:31;99990.53;;;5.53;62.45
60087;BME280;45960;53.630;55.972;2023-03-29T03:11:33;99984.22;;;5.56;62.31
60087;BME280;45960;53.630;55.972;2023-03-29T03:12:33;99992.09;;;5.57;62.26
60087;BME280;45960;53.630;55.972;2023-03-29T03:13:34;99991.06;;;5.60;62.38
60087;BME280;45960;53.630;55.972;2023-03-29T03:14:35;99998.97;;;5.61;62.27
60087;BME280;45960;53.630;55.972;2023-03-29T03:15:36;99986.66;;;5.60;62.37
60087;BME280;45960;53.630;55.972;2023-03-29T03:16:40;99991.00;;;5.61;62.20
60087;BME280;45960;53.630;55.972;2023-03-29T03:17:42;99998.81;;;5.65;61.88
60087;BME280;45960;53.630;55.972;2023-03-29T03:18:44;99998.81;;;5.65;62.19
60087;BME280;45960;53.630;55.972;2023-03-29T03:19:45;100003.16;;;5.66;62.07
60087;BME280;45960;53.630;55.972;2023-03-29T03:20:56;100002.25;;;5.67;61.96
60087;BME280;45960;53.630;55.972;2023-03-29T03:21:57;100004.81;;;5.68;62.01
60087;BME280;45960;53.630;55.972;2023-03-29T03:22:58;100006.53;;;5.69;61.84
60087;BME280;45960;53.630;55.972;2023-03-29T03:24:00;100009.09;;;5.71;61.86
60087;BME280;45960;53.630;55.972;2023-03-29T03:25:01;100009.94;;;5.71;61.73
60087;BME280;45960;53.630;55.972;2023-03-29T03:26:02;100003.78;;;5.71;61.75
60087;BME280;45960;53.630;55.972;2023-03-29T03:27:04;100003.78;;;5.71;61.91
60087;BME280;45960;53.630;55.972;2023-03-29T03:28:05;100003.78;;;5.71;61.82
60087;BME280;45960;53.630;55.972;2023-03-29T03:29:07;99998.50;;;5.71;61.94
60087;BME280;45960;53.630;55.972;2023-03-29T03:30:26;100012.53;;;5.73;61.86
60087;BME280;45960;53.630;55.972;2023-03-29T03:31:46;100008.03;;;5.75;61.70
60087;BME280;45960;53.630;55.972;2023-03-29T03:33:04;100008.78;;;5.77;61.79
60087;BME280;45960;53.630;55.972;2023-03-29T03:34:23;100005.38;;;5.75;61.66
60087;BME280;45960;53.630;55.972;2023-03-29T03:35:30;100007.09;;;5.76;61.68
60087;BME280;45960;53.630;55.972;2023-03-29T03:36:31;100000.06;;;5.75;61.89
60087;BME280;45960;53.630;55.972;2023-03-29T03:37:34;100008.78;;;5.77;61.87
60087;BME280;45960;53.630;55.972;2023-03-29T03:38:36;100007.88;;;5.78;61.92
60087;BME280;45960;53.630;55.972;2023-03-29T03:39:38;100000.72;;;5.80;61.74
60087;BME280;45960;53.630;55.972;2023-03-29T03:40:41;99999.75;;;5.81;61.92
60087;BME280;45960;53.630;55.972;2023-03-29T03:41:43;100000.63;;;5.81;61.74
60087;BME280;45960;53.630;55.972;2023-03-29T03:42:43;99996.97;;;5.84;61.76
60087;BME280;45960;53.630;55.972;2023-03-29T03:43:45;100001.31;;;5.85;61.53
60087;BME280;45960;53.630;55.972;2023-03-29T03:44:48;99999.44;;;5.87;61.81
60087;BME280;45960;53.630;55.972;2023-03-29T03:46:15;99991.44;;;5.89;61.65
60087;BME280;45960;53.630;55.972;2023-03-29T03:47:17;99995.72;;;5.91;61.57
60087;BME280;45960;53.630;55.972;2023-03-29T03:48:18;99992.13;;;5.92;61.79
60087;BME280;45960;53.630;55.972;2023-03-29T03:49:22;99992.00;;;5.95;61.73
60087;BME280;45960;53.630;55.972;2023-03-29T03:50:23;99992.78;;;5.97;61.33
60087;BME280;45960;53.630;55.972;2023-03-29T03:51:24;99996.22;;;5.99;61.59
60087;BME280;45960;53.630;55.972;2023-03-29T03:52:26;99995.28;;;6.00;61.53
60087;BME280;45960;53.630;55.972;2023-03-29T03:53:27;99996.06;;;6.02;61.34
60087;BME280;45960;53.630;55.972;2023-03-29T03:54:54;99994.97;;;6.07;61.46
60087;BME280;45960;53.630;55.972;2023-03-29T03:56:24;99999.09;;;6.12;61.46
60087;BME280;45960;53.630;55.972;2023-03-29T03:57:48;99987.47;;;6.15;61.13
60087;BME280;45960;53.630;55.972;2023-03-29T03:58:52;99991.75;;;6.17;61.38
60087;BME280;45960;53.630;55.972;2023-03-29T03:59:53;99986.28;;;6.20;61.33
60087;BME280;45960;53.630;55.972;2023-03-29T04:01:00;99992.28;;;6.24;61.23
60087;BME280;45960;53.630;55.972;2023-03-29T04:02:13;99986.97;;;6.24;61.21
60087;BME280;45960;53.630;55.972;2023-03-29T04:03:16;99992.13;;;6.27;61.21
60087;BME280;45960;53.630;55.972;2023-03-29T04:04:17;99995.56;;;6.29;61.18
60087;BME280;45960;53.630;55.972;2023-03-29T04:05:42;100002.44;;;6.33;61.09
60087;BME280;45960;53.630;55.972;2023-03-29T04:06:43;99999.63;;;6.36;60.99
60087;BME280;45960;53.630;55.972;2023-03-29T04:08:10;99985.25;;;6.40;60.68
60087;BME280;45960;53.630;55.972;2023-03-29T04:09:32;99996.66;;;6.42;60.88
60087;BME280;45960;53.630;55.972;2023-03-29T04:10:50;99997.28;;;6.47;60.97
60087;BME280;45960;53.630;55.972;2023-03-29T04:11:57;100003.34;;;6.49;60.68
60087;BME280;45960;53.630;55.972;2023-03-29T04:12:58;100004.13;;;6.52;60.74
60087;BME280;45960;53.630;55.972;2023-03-29T04:14:02;99997.88;;;6.53;60.59
60087;BME280;45960;53.630;55.972;2023-03-29T04:15:23;99998.56;;;6.56;60.50
60087;BME280;45960;53.630;55.972;2023-03-29T04:16:34;100004.56;;;6.60;60.49
60087;BME280;45960;53.630;55.972;2023-03-29T04:17:50;100009.88;;;6.60;60.44
60087;BME280;45960;53.630;55.972;2023-03-29T04:19:15;100009.72;;;6.63;60.48
60087;BME280;45960;53.630;55.972;2023-03-29T04:20:17;100005.19;;;6.65;60.44
60087;BME280;45960;53.630;55.972;2023-03-29T04:21:19;99996.88;;;6.71;60.25
60087;BME280;45960;53.630;55.972;2023-03-29T04:22:21;100006.50;;;6.73;60.08
60087;BME280;45960;53.630;55.972;2023-03-29T04:23:22;99998.59;;;6.72;60.25
60087;BME280;45960;53.630;55.972;2023-03-29T04:24:23;99995.03;;;6.73;60.12
60087;BME280;45960;53.630;55.972;2023-03-29T04:25:44;100003.78;;;6.75;60.19
60087;BME280;45960;53.630;55.972;2023-03-29T04:27:04;100008.75;;;6.81;59.91
60087;BME280;45960;53.630;55.972;2023-03-29T04:28:05;100006.69;;;6.86;59.68
60087;BME280;45960;53.630;55.972;2023-03-29T04:29:21;100006.34;;;6.92;59.60
60087;BME280;45960;53.630;55.972;2023-03-29T04:30:28;99998.22;;;6.95;59.60
60087;BME280;45960;53.630;55.972;2023-03-29T04:31:49;100002.34;;;7.01;59.39
60087;BME280;45960;53.630;55.972;2023-03-29T04:33:02;99997.81;;;7.03;59.37
60087;BME280;45960;53.630;55.972;2023-03-29T04:34:04;100005.69;;;7.05;59.31
60087;BME280;45960;53.630;55.972;2023-03-29T04:35:05;100007.31;;;7.07;59.27
60087;BME280;45960;53.630;55.972;2023-03-29T04:36:06;100014.25;;;7.10;59.04
60087;BME280;45960;53.630;55.972;2023-03-29T04:37:07;100009.78;;;7.10;59.03
60087;BME280;45960;53.630;55.972;2023-03-29T04:38:10;100012.22;;;7.15;59.02
60087;BME280;45960;53.630;55.972;2023-03-29T04:39:12;100003.38;;;7.14;58.91
60087;BME280;45960;53.630;55.972;2023-03-29T04:40:14;100013.91;;;7.16;59.02
60087;BME280;45960;53.630;55.972;2023-03-29T04:41:34;100022.66;;;7.18;58.76
60087;BME280;45960;53.630;55.972;2023-03-29T04:42:50;100022.50;;;7.21;58.68
60087;BME280;45960;53.630;55.972;2023-03-29T04:43:51;100018.03;;;7.22;58.66
60087;BME280;45960;53.630;55.972;2023-03-29T04:45:00;100022.31;;;7.24;58.74
60087;BME280;45960;53.630;55.972;2023-03-29T04:46:18;100023.88;;;7.28;58.75
60087;BME280;45960;53.630;55.972;2023-03-29T04:47:54;100027.09;;;7.33;58.72
60087;BME280;45960;53.630;55.972;2023-03-29T04:48:55;100034.16;;;7.34;58.57
60087;BME280;45960;53.630;55.972;2023-03-29T04:50:06;100034.16;;;7.34;58.52
60087;BME280;45960;53.630;55.972;2023-03-29T04:51:15;100030.38;;;7.38;58.62
60087;BME280;45960;53.630;55.972;2023-03-29T04:52:19;100026.63;;;7.43;58.47
60087;BME280;45960;53.630;55.972;2023-03-29T04:53:21;100030.03;;;7.45;58.40
60087;BME280;45960;53.630;55.972;2023-03-29T04:54:23;100024.53;;;7.48;58.48
60087;BME280;45960;53.630;55.972;2023-03-29T04:55:39;100031.41;;;7.52;58.26
60087;BME280;45960;53.630;55.972;2023-03-29T04:56:43;100034.84;;;7.54;58.25
60087;BME280;45960;53.630;55.972;2023-03-29T04:58:09;100036.38;;;7.58;58.13
60087;BME280;45960;53.630;55.972;2023-03-29T04:59:13;100032.59;;;7.62;58.16
60087;BME280;45960;53.630;55.972;2023-03-29T05:00:14;100046.56;;;7.66;58.11
60087;BME280;45960;53.630;55.972;2023-03-29T05:01:44;100035.69;;;7.70;57.91
60087;BME280;45960;53.630;55.972;2023-03-29T05:02:45;100042.53;;;7.74;57.77
60087;BME280;45960;53.630;55.972;2023-03-29T05:03:47;100044.06;;;7.78;57.87
60087;BME280;45960;53.630;55.972;2023-03-29T05:04:56;100045.78;;;7.79;57.70
60087;BME280;45960;53.630;55.972;2023-03-29T05:06:04;100045.63;;;7.82;57.74
60087;BME280;45960;53.630;55.972;2023-03-29T05:07:07;100035.75;;;7.84;57.67
60087;BME280;45960;53.630;55.972;2023-03-29T05:08:08;100054.19;;;7.88;57.77
60087;BME280;45960;53.630;55.972;2023-03-29T05:09:42;100043.19;;;7.94;57.79
60087;BME280;45960;53.630;55.972;2023-03-29T05:10:45;100050.03;;;7.98;57.55
60087;BME280;45960;53.630;55.972;2023-03-29T05:11:48;100046.34;;;8.00;57.45
60087;BME280;45960;53.630;55.972;2023-03-29T05:12:50;100055.03;;;8.04;57.39
60087;BME280;45960;53.630;55.972;2023-03-29T05:13:54;100053.09;;;8.06;57.53
60087;BME280;45960;53.630;55.972;2023-03-29T05:14:59;100052.72;;;8.12;57.51
60087;BME280;45960;53.630;55.972;2023-03-29T05:16:03;100066.63;;;8.17;57.36
60087;BME280;45960;53.630;55.972;2023-03-29T05:17:04;100053.91;;;8.22;57.26
60087;BME280;45960;53.630;55.972;2023-03-29T05:18:07;100053.72;;;8.25;57.19
60087;BME280;45960;53.630;55.972;2023-03-29T05:19:08;100067.63;;;8.30;57.21
60087;BME280;45960;53.630;55.972;2023-03-29T05:20:14;100063.84;;;8.35;57.38
60087;BME280;45960;53.630;55.972;2023-03-29T05:21:18;100061.78;;;8.40;57.03
60087;BME280;45960;53.630;55.972;2023-03-29T05:22:20;100065.22;;;8.42;56.88
60087;BME280;45960;53.630;55.972;2023-03-29T05:23:21;100066.00;;;8.44;56.88
60087;BME280;45960;53.630;55.972;2023-03-29T05:24:41;100080.81;;;8.48;56.74
60087;BME280;45960;53.630;55.972;2023-03-29T05:25:49;100078.75;;;8.53;56.68
60087;BME280;45960;53.630;55.972;2023-03-29T05:26:50;100076.84;;;8.55;56.65
60087;BME280;45960;53.630;55.972;2023-03-29T05:27:52;100076.47;;;8.61;56.40
60087;BME280;45960;53.630;55.972;2023-03-29T05:28:53;100078.09;;;8.64;56.19
60087;BME280;45960;53.630;55.972;2023-03-29T05:29:54;100072.66;;;8.65;56.21
60087;BME280;45960;53.630;55.972;2023-03-29T05:31:15;100068.88;;;8.69;56.26
60087;BME280;45960;53.630;55.972;2023-03-29T05:32:18;100079.16;;;8.76;56.36
60087;BME280;45960;53.630;55.972;2023-03-29T05:33:19;100075.19;;;8.83;56.44
60087;BME280;45960;53.630;55.972;2023-03-29T05:34:20;100074.81;;;8.89;56.12
60087;BME280;45960;53.630;55.972;2023-03-29T05:35:26;100072.72;;;8.94;55.96
60087;BME280;45960;53.630;55.972;2023-03-29T05:36:29;100063.50;;;9.00;56.01
60087;BME280;45960;53.630;55.972;2023-03-29T05:37:30;100071.19;;;9.04;55.80
60087;BME280;45960;53.630;55.972;2023-03-29T05:38:33;100063.69;;;9.11;55.63
60087;BME280;45960;53.630;55.972;2023-03-29T05:39:36;100064.34;;;9.14;55.52
60087;BME280;45960;53.630;55.972;2023-03-29T05:40:38;100070.25;;;9.19;55.29
60087;BME280;45960;53.630;55.972;2023-03-29T05:42:11;100068.16;;;9.25;55.29
60087;BME280;45960;53.630;55.972;2023-03-29T05:43:23;100066.97;;;9.29;55.11
60087;BME280;45960;53.630;55.972;2023-03-29T05:44:24;100056.88;;;9.34;55.25
60087;BME280;45960;53.630;55.972;2023-03-29T05:45:30;100062.78;;;9.39;55.17
60087;BME280;45960;53.630;55.972;2023-03-29T05:46:33;100059.72;;;9.45;55.10
60087;BME280;45960;53.630;55.972;2023-03-29T05:47:36;100064.66;;;9.51;54.98
60087;BME280;45960;53.630;55.972;2023-03-29T05:48:37;100063.31;;;9.58;55.01
60087;BME280;45960;53.630;55.972;2023-03-29T05:49:39;100063.78;;;9.65;54.88
60087;BME280;45960;53.630;55.972;2023-03-29T05:50:49;100060.59;;;9.73;54.73
60087;BME280;45960;53.630;55.972;2023-03-29T05:51:51;100064.56;;;9.80;54.83
60087;BME280;45960;53.630;55.972;2023-03-29T05:52:56;100058.84;;;9.86;54.49
60087;BME280;45960;53.630;55.972;2023-03-29T05:53:57;100066.47;;;9.92;54.31
60087;BME280;45960;53.630;55.972;2023-03-29T05:54:58;100074.25;;;9.95;54.26
60087;BME280;45960;53.630;55.972;2023-03-29T05:56:00;100069.69;;;9.97;54.17
60087;BME280;45960;53.630;55.972;2023-03-29T05:57:03;100071.38;;;9.98;54.00
60087;BME280;45960;53.630;55.972;2023-03-29T05:58:04;100071.38;;;9.98;54.09
60087;BME280;45960;53.630;55.972;2023-03-29T05:59:08;100065.00;;;10.01;53.98